createdAt,value
2023-05-06T00:00:14.589Z,12.20
2023-05-06T00:02:42.512Z,12.20
2023-05-06T00:05:11.067Z,12.10
2023-05-06T00:07:39.249Z,12.10
2023-05-06T00:10:07.697Z,12.00
2023-05-06T00:12:36.944Z,12.00
2023-05-06T00:15:05.345Z,12.00
2023-05-06T00:17:33.254Z,12.00
2023-05-06T00:20:01.074Z,11.90
2023-05-06T00:22:28.891Z,11.80
2023-05-06T00:24:56.763Z,11.90
2023-05-06T00:27:24.566Z,11.90
2023-05-06T00:29:53.727Z,11.80
2023-05-06T00:32:21.537Z,11.80
2023-05-06T00:34:49.325Z,11.90
2023-05-06T00:37:17.086Z,11.70
2023-05-06T00:39:44.862Z,11.60
2023-05-06T00:42:12.640Z,11.40
2023-05-06T00:44:40.444Z,11.60
2023-05-06T00:47:09.547Z,11.60
2023-05-06T00:49:37.311Z,11.40
2023-05-06T00:52:05.430Z,11.50
2023-05-06T00:54:33.181Z,11.40
2023-05-06T00:57:01.319Z,11.40
2023-05-06T00:59:29.175Z,11.60
2023-05-06T01:01:58.079Z,11.40
2023-05-06T01:04:28.525Z,11.30
2023-05-06T01:06:59.365Z,11.20
2023-05-06T01:09:29.796Z,11.20
2023-05-06T01:12:03.904Z,11.00
2023-05-06T01:14:42.546Z,11.10
2023-05-06T01:17:11.770Z,11.10
2023-05-06T01:19:42.843Z,11.20
2023-05-06T01:22:11.155Z,11.10
2023-05-06T01:24:41.073Z,11.20
2023-05-06T01:27:09.207Z,11.10
2023-05-06T01:29:37.575Z,11.00
2023-05-06T01:32:14.990Z,10.90
2023-05-06T01:34:44.332Z,10.90
2023-05-06T01:37:15.443Z,11.00
2023-05-06T01:39:44.582Z,11.00
2023-05-06T01:42:12.343Z,11.30
2023-05-06T01:44:40.124Z,11.40
2023-05-06T01:47:08.484Z,11.30
2023-05-06T01:49:36.286Z,11.60
2023-05-06T01:52:04.103Z,11.60
2023-05-06T01:54:31.939Z,11.80
2023-05-06T01:57:02.056Z,11.50
2023-05-06T01:59:29.811Z,11.20
2023-05-06T02:01:57.924Z,11.10
2023-05-06T02:04:25.714Z,10.90
2023-05-06T02:06:53.462Z,10.80
2023-05-06T02:09:21.338Z,10.90
2023-05-06T02:11:49.076Z,11.10
2023-05-06T02:14:18.206Z,11.00
2023-05-06T02:16:45.989Z,10.80
2023-05-06T02:19:13.758Z,10.80
2023-05-06T02:21:41.519Z,10.80
2023-05-06T02:24:09.381Z,10.80
2023-05-06T02:26:37.142Z,10.80
2023-05-06T02:29:04.889Z,10.90
2023-05-06T02:31:34.039Z,10.90
2023-05-06T02:34:01.864Z,11.00
2023-05-06T02:36:29.709Z,10.90
2023-05-06T02:38:57.492Z,11.20
2023-05-06T02:41:25.318Z,11.10
2023-05-06T02:43:53.059Z,10.90
2023-05-06T02:46:20.916Z,10.90
2023-05-06T02:48:50.091Z,10.80
2023-05-06T02:51:17.880Z,11.00
2023-05-06T02:53:45.670Z,10.70
2023-05-06T02:56:13.450Z,10.70
2023-05-06T02:58:41.227Z,10.60
2023-05-06T03:01:09.202Z,10.50
2023-05-06T03:03:37.091Z,10.50
2023-05-06T03:06:06.617Z,10.50
2023-05-06T03:08:34.572Z,10.40
2023-05-06T03:11:02.334Z,10.50
2023-05-06T03:13:30.105Z,10.50
2023-05-06T03:15:57.897Z,10.50
2023-05-06T03:18:25.657Z,10.60
2023-05-06T03:20:53.440Z,10.50
2023-05-06T03:23:22.538Z,10.80
2023-05-06T03:25:50.441Z,10.40
2023-05-06T03:28:18.210Z,10.30
2023-05-06T03:30:45.949Z,10.20
2023-05-06T03:33:13.701Z,10.20
2023-05-06T03:35:41.495Z,10.30
2023-05-06T03:38:09.232Z,10.40
2023-05-06T03:40:38.291Z,10.60
2023-05-06T03:43:06.019Z,10.20
2023-05-06T03:45:33.727Z,10.40
2023-05-06T03:48:01.475Z,10.50
2023-05-06T03:50:29.211Z,10.70
2023-05-06T03:52:56.983Z,10.20
2023-05-06T03:55:24.773Z,10.50
2023-05-06T03:57:53.898Z,10.30
2023-05-06T04:00:22.150Z,10.10
2023-05-06T04:02:49.954Z,10.30
2023-05-06T04:05:17.952Z,10.50
2023-05-06T04:07:45.812Z,10.30
2023-05-06T04:10:13.813Z,10.20
2023-05-06T04:12:41.629Z,10.20
2023-05-06T04:15:12.096Z,10.40
2023-05-06T04:17:39.941Z,10.30
2023-05-06T04:20:11.391Z,10.30
2023-05-06T04:22:39.503Z,10.40
2023-05-06T04:25:08.816Z,10.20
2023-05-06T04:27:36.925Z,10.20
2023-05-06T04:30:05.053Z,10.30
2023-05-06T04:32:34.414Z,10.30
2023-05-06T04:35:02.266Z,10.40
2023-05-06T04:37:30.835Z,10.30
2023-05-06T04:39:58.703Z,10.50
2023-05-06T04:42:26.509Z,10.70
2023-05-06T04:44:54.262Z,10.70
2023-05-06T04:47:22.065Z,10.30
2023-05-06T04:49:51.182Z,10.70
2023-05-06T04:52:18.935Z,11.40
2023-05-06T04:54:46.687Z,11.20
2023-05-06T04:57:14.463Z,10.80
2023-05-06T04:59:42.721Z,10.70
2023-05-06T05:02:10.539Z,10.50
2023-05-06T05:04:38.391Z,10.30
2023-05-06T05:07:07.903Z,10.40
2023-05-06T05:09:35.822Z,10.50
2023-05-06T05:12:03.603Z,10.50
2023-05-06T05:14:31.512Z,10.40
2023-05-06T05:16:59.330Z,10.70
2023-05-06T05:19:27.138Z,10.50
2023-05-06T05:21:54.904Z,10.40
2023-05-06T05:24:24.034Z,10.60
2023-05-06T05:26:51.792Z,10.60
2023-05-06T05:29:19.546Z,10.50
2023-05-06T05:31:47.334Z,10.60
2023-05-06T05:34:15.097Z,10.60
2023-05-06T05:36:42.862Z,10.90
2023-05-06T05:39:10.759Z,11.00
2023-05-06T05:41:39.868Z,11.10
2023-05-06T05:44:07.638Z,11.00
2023-05-06T05:46:35.486Z,11.00
2023-05-06T05:49:03.578Z,11.10
2023-05-06T05:51:31.386Z,11.10
2023-05-06T05:53:59.176Z,11.20
2023-05-06T05:56:27.044Z,11.40
2023-05-06T05:58:56.352Z,11.50
2023-05-06T06:01:24.138Z,11.70
2023-05-06T06:03:52.456Z,12.00
2023-05-06T06:06:20.329Z,12.30
2023-05-06T06:08:48.104Z,12.60
2023-05-06T06:11:15.882Z,12.40
2023-05-06T06:13:43.753Z,12.50
2023-05-06T06:16:12.956Z,12.60
2023-05-06T06:18:40.716Z,12.70
2023-05-06T06:21:08.510Z,12.80
2023-05-06T06:23:36.281Z,12.90
2023-05-06T06:26:04.600Z,13.00
2023-05-06T06:28:32.437Z,12.90
2023-05-06T06:31:00.248Z,13.00
2023-05-06T06:33:29.345Z,13.20
2023-05-06T06:35:58.280Z,13.30
2023-05-06T06:38:26.148Z,13.30
2023-05-06T06:40:53.914Z,13.40
2023-05-06T06:43:21.869Z,13.60
2023-05-06T06:45:49.654Z,13.60
2023-05-06T06:48:17.514Z,13.50
2023-05-06T06:50:46.621Z,13.60
2023-05-06T06:53:14.378Z,13.50
2023-05-06T06:55:44.253Z,13.70
2023-05-06T06:58:12.193Z,13.90
2023-05-06T07:00:39.979Z,13.90
2023-05-06T07:03:07.803Z,13.60
2023-05-06T07:05:35.675Z,13.60
2023-05-06T07:08:04.851Z,13.60
2023-05-06T07:10:32.605Z,13.70
2023-05-06T07:13:00.375Z,13.80
2023-05-06T07:15:28.232Z,14.00
2023-05-06T07:17:56.050Z,14.00
2023-05-06T07:20:23.811Z,14.20
2023-05-06T07:22:51.584Z,14.30
2023-05-06T07:25:20.899Z,14.60
2023-05-06T07:27:48.649Z,14.60
2023-05-06T07:30:16.838Z,14.40
2023-05-06T07:32:44.697Z,14.50
2023-05-06T07:35:12.690Z,14.80
2023-05-06T07:37:40.618Z,15.00
2023-05-06T07:40:09.523Z,15.50
2023-05-06T07:42:39.598Z,15.60
2023-05-06T07:45:09.300Z,15.40
2023-05-06T07:47:37.337Z,15.60
2023-05-06T07:50:06.817Z,15.80
2023-05-06T07:52:34.644Z,15.80
2023-05-06T07:55:02.400Z,15.50
2023-05-06T07:57:30.168Z,16.10
2023-05-06T07:59:59.367Z,16.40
2023-05-06T08:02:27.720Z,16.20
2023-05-06T08:04:55.722Z,16.20
2023-05-06T08:07:23.555Z,16.20
2023-05-06T08:09:51.312Z,16.00
2023-05-06T08:12:19.080Z,15.80
2023-05-06T08:14:46.831Z,15.70
2023-05-06T08:17:15.904Z,15.90
2023-05-06T08:19:43.661Z,15.90
2023-05-06T08:22:11.396Z,15.90
2023-05-06T08:24:39.226Z,15.90
2023-05-06T08:27:07.061Z,16.00
2023-05-06T08:29:34.864Z,16.00
2023-05-06T08:32:02.694Z,16.00
2023-05-06T08:34:31.968Z,15.80
2023-05-06T08:37:00.218Z,15.90
2023-05-06T08:39:28.019Z,15.70
2023-05-06T08:41:55.829Z,15.90
2023-05-06T08:44:24.875Z,15.70
2023-05-06T08:46:52.645Z,16.00
2023-05-06T08:49:21.063Z,16.00
2023-05-06T08:51:50.437Z,15.80
2023-05-06T08:54:18.196Z,16.00
2023-05-06T08:56:47.370Z,16.10
2023-05-06T08:59:15.142Z,16.20
2023-05-06T09:01:43.004Z,16.50
2023-05-06T09:04:11.175Z,16.40
2023-05-06T09:06:39.710Z,16.00
2023-05-06T09:09:08.816Z,16.00
2023-05-06T09:11:38.874Z,16.00
2023-05-06T09:14:11.674Z,15.90
2023-05-06T09:16:39.599Z,16.30
2023-05-06T09:19:07.362Z,16.20
2023-05-06T09:21:35.291Z,16.20
2023-05-06T09:24:03.416Z,15.80
2023-05-06T09:26:32.655Z,16.20
2023-05-06T09:29:00.560Z,17.10
2023-05-06T09:31:28.968Z,16.90
2023-05-06T09:33:57.599Z,17.30
2023-05-06T09:36:26.117Z,17.40
2023-05-06T09:38:55.463Z,17.20
2023-05-06T09:41:24.249Z,17.00
2023-05-06T09:43:53.520Z,17.40
2023-05-06T09:46:21.865Z,17.40
2023-05-06T09:48:51.173Z,17.80
2023-05-06T09:51:19.020Z,17.40
2023-05-06T09:53:46.813Z,17.00
2023-05-06T09:56:15.408Z,17.20
2023-05-06T09:58:43.216Z,17.20
2023-05-06T10:01:19.183Z,17.30
2023-05-06T10:03:53.774Z,17.40
2023-05-06T10:06:21.673Z,17.50
2023-05-06T10:08:49.454Z,17.60
2023-05-06T10:11:17.879Z,17.60
2023-05-06T10:13:45.644Z,17.50
2023-05-06T10:16:15.832Z,17.60
2023-05-06T10:18:43.784Z,17.60
2023-05-06T10:21:15.928Z,17.90
2023-05-06T10:23:45.291Z,17.90
2023-05-06T10:26:13.310Z,18.60
2023-05-06T10:28:41.706Z,19.50
2023-05-06T10:31:11.629Z,19.60
2023-05-06T10:33:42.305Z,19.60
2023-05-06T10:36:15.545Z,19.90
2023-05-06T10:38:44.694Z,20.40
2023-05-06T10:41:12.887Z,20.30
2023-05-06T10:43:42.222Z,20.00
2023-05-06T10:46:10.802Z,20.30
2023-05-06T10:48:40.569Z,19.90
2023-05-06T10:51:24.866Z,20.50
2023-05-06T10:54:03.733Z,20.80
2023-05-06T10:56:32.570Z,19.50
2023-05-06T10:59:04.101Z,19.80
2023-05-06T11:01:32.148Z,19.90
2023-05-06T11:04:03.378Z,19.50
2023-05-06T11:06:35.580Z,19.40
2023-05-06T11:09:04.867Z,19.40
2023-05-06T11:11:47.971Z,19.20
2023-05-06T11:14:16.859Z,18.60
2023-05-06T11:16:47.951Z,18.50
2023-05-06T11:19:21.037Z,18.50
2023-05-06T11:21:50.566Z,18.30
2023-05-06T11:24:24.812Z,18.10
2023-05-06T11:26:52.672Z,18.10
2023-05-06T11:29:20.723Z,18.10
2023-05-06T11:31:48.608Z,17.90
2023-05-06T11:34:22.809Z,18.00
2023-05-06T11:36:53.460Z,17.90
2023-05-06T11:39:21.265Z,18.00
2023-05-06T11:41:49.100Z,18.60
2023-05-06T11:44:27.300Z,19.10
2023-05-06T11:46:59.041Z,19.30
2023-05-06T11:49:28.584Z,19.40
2023-05-06T11:51:56.998Z,19.80
2023-05-06T11:54:26.654Z,19.90
2023-05-06T11:56:56.198Z,20.20
2023-05-06T11:59:31.580Z,19.70
2023-05-06T12:02:00.473Z,19.60
2023-05-06T12:04:36.505Z,19.70
2023-05-06T12:07:04.854Z,19.30
2023-05-06T12:09:32.723Z,19.00
2023-05-06T12:12:00.880Z,18.70
2023-05-06T12:14:28.690Z,18.90
2023-05-06T12:16:56.537Z,19.00
2023-05-06T12:19:24.369Z,19.10
2023-05-06T12:21:53.531Z,19.00
2023-05-06T12:24:28.215Z,18.80
2023-05-06T12:26:56.150Z,18.20
2023-05-06T12:29:23.977Z,18.00
2023-05-06T12:32:07.259Z,17.90
2023-05-06T12:34:38.517Z,17.50
2023-05-06T12:37:07.798Z,17.70
2023-05-06T12:39:36.369Z,18.30
2023-05-06T12:42:04.267Z,18.60
2023-05-06T12:44:36.357Z,18.60
2023-05-06T12:47:07.342Z,19.20
2023-05-06T12:49:51.356Z,19.30
2023-05-06T12:52:21.054Z,19.40
2023-05-06T12:54:48.979Z,19.60
2023-05-06T12:57:16.970Z,19.70
2023-05-06T12:59:44.965Z,19.90
2023-05-06T13:02:13.102Z,19.70
2023-05-06T13:04:41.319Z,20.00
2023-05-06T13:07:09.150Z,20.00
2023-05-06T13:09:38.315Z,20.50
2023-05-06T13:12:07.210Z,20.80
2023-05-06T13:14:36.899Z,20.70
2023-05-06T13:17:06.807Z,20.60
2023-05-06T13:19:34.967Z,20.70
2023-05-06T13:22:02.859Z,20.90
2023-05-06T13:24:30.796Z,21.00
2023-05-06T13:27:00.956Z,21.00
2023-05-06T13:29:29.495Z,20.70
2023-05-06T13:31:57.617Z,20.70
2023-05-06T13:34:26.048Z,20.80
2023-05-06T13:36:54.561Z,21.20
2023-05-06T13:39:22.587Z,21.20
2023-05-06T13:41:50.916Z,21.60
2023-05-06T13:44:20.424Z,21.50
2023-05-06T13:46:48.482Z,21.60
2023-05-06T13:49:16.443Z,21.70
2023-05-06T13:51:44.266Z,21.50
2023-05-06T13:54:12.106Z,21.70
2023-05-06T13:56:39.935Z,21.70
2023-05-06T13:59:09.953Z,21.60
2023-05-06T14:01:39.682Z,21.30
2023-05-06T14:04:07.523Z,21.20
2023-05-06T14:06:35.440Z,20.90
2023-05-06T14:09:04.556Z,20.60
2023-05-06T14:11:32.518Z,20.80
2023-05-06T14:14:00.444Z,20.30
2023-05-06T14:16:28.330Z,19.80
2023-05-06T14:18:57.641Z,19.80
2023-05-06T14:21:25.918Z,19.60
2023-05-06T14:23:53.712Z,19.30
2023-05-06T14:26:22.482Z,19.40
2023-05-06T14:28:50.330Z,19.30
2023-05-06T14:31:18.564Z,19.50
2023-05-06T14:33:46.385Z,19.40
2023-05-06T14:36:20.546Z,19.40
2023-05-06T14:38:48.343Z,19.10
2023-05-06T14:41:16.173Z,19.30
2023-05-06T14:43:43.996Z,19.70
2023-05-06T14:46:14.458Z,20.10
2023-05-06T14:48:43.268Z,20.20
2023-05-06T14:51:11.289Z,20.40
2023-05-06T14:53:40.445Z,20.40
2023-05-06T14:56:10.206Z,19.90
2023-05-06T14:58:39.164Z,19.90
2023-05-06T15:01:07.176Z,19.90
2023-05-06T15:03:36.284Z,19.80
2023-05-06T15:06:04.504Z,19.90
2023-05-06T15:08:32.526Z,20.00
2023-05-06T15:11:03.847Z,19.90
2023-05-06T15:13:32.181Z,19.90
2023-05-06T15:16:00.048Z,19.60
2023-05-06T15:18:27.942Z,19.10
2023-05-06T15:20:58.534Z,18.70
2023-05-06T15:23:26.456Z,18.50
2023-05-06T15:25:54.337Z,18.50
2023-05-06T15:28:24.700Z,18.80
2023-05-06T15:30:52.703Z,18.70
2023-05-06T15:33:20.588Z,18.70
2023-05-06T15:35:48.408Z,18.70
2023-05-06T15:38:16.258Z,18.70
2023-05-06T15:40:46.814Z,18.80
2023-05-06T15:43:22.872Z,18.70
2023-05-06T15:45:53.002Z,18.90
2023-05-06T15:48:20.897Z,18.70
2023-05-06T15:50:48.840Z,18.70
2023-05-06T15:53:16.695Z,18.90
2023-05-06T15:55:49.448Z,19.00
2023-05-06T15:58:24.572Z,18.80
2023-05-06T16:00:53.822Z,18.90
2023-05-06T16:03:21.879Z,19.10
2023-05-06T16:05:49.962Z,19.20
2023-05-06T16:08:17.775Z,19.30
2023-05-06T16:10:45.618Z,19.30
2023-05-06T16:13:13.501Z,19.40
2023-05-06T16:15:41.613Z,18.90
2023-05-06T16:18:11.122Z,19.20
2023-05-06T16:20:39.026Z,19.20
2023-05-06T16:23:06.840Z,19.30
2023-05-06T16:25:34.868Z,19.40
2023-05-06T16:28:02.757Z,19.30
2023-05-06T16:30:30.609Z,19.50
2023-05-06T16:32:58.456Z,19.30
2023-05-06T16:35:27.635Z,19.20
2023-05-06T16:37:55.508Z,19.20
2023-05-06T16:40:23.356Z,19.40
2023-05-06T16:42:51.178Z,19.30
2023-05-06T16:45:19.214Z,19.20
2023-05-06T16:47:47.113Z,19.00
2023-05-06T16:50:14.991Z,19.00
2023-05-06T16:52:44.149Z,18.90
2023-05-06T16:55:11.965Z,18.80
2023-05-06T16:57:39.798Z,18.80
2023-05-06T17:00:11.735Z,18.90
2023-05-06T17:02:40.933Z,19.00
2023-05-06T17:05:09.125Z,18.90
2023-05-06T17:07:36.997Z,18.90
2023-05-06T17:10:06.967Z,19.00
2023-05-06T17:12:35.112Z,18.90
2023-05-06T17:15:03.365Z,18.90
2023-05-06T17:17:31.221Z,18.90
2023-05-06T17:19:59.226Z,18.90
2023-05-06T17:22:27.160Z,18.70
2023-05-06T17:24:54.977Z,18.50
2023-05-06T17:27:24.156Z,18.40
2023-05-06T17:29:52.275Z,18.60
2023-05-06T17:32:20.449Z,18.60
2023-05-06T17:34:48.285Z,18.40
2023-05-06T17:37:16.219Z,18.40
2023-05-06T17:39:44.029Z,18.50
2023-05-06T17:42:11.782Z,18.20
2023-05-06T17:44:42.487Z,18.00
2023-05-06T17:47:10.532Z,18.10
2023-05-06T17:49:38.293Z,18.00
2023-05-06T17:52:06.159Z,18.10
2023-05-06T17:54:35.086Z,18.20
2023-05-06T17:57:03.525Z,18.30
2023-05-06T17:59:31.385Z,18.10
2023-05-06T18:02:01.217Z,18.10
2023-05-06T18:04:29.131Z,18.10
2023-05-06T18:06:57.034Z,17.70
2023-05-06T18:09:24.903Z,17.60
2023-05-06T18:11:52.738Z,17.80
2023-05-06T18:14:20.552Z,17.80
2023-05-06T18:16:48.363Z,17.80
2023-05-06T18:19:17.541Z,17.70
2023-05-06T18:21:45.930Z,17.70
2023-05-06T18:24:16.604Z,17.70
2023-05-06T18:26:46.037Z,17.60
2023-05-06T18:29:14.380Z,17.50
2023-05-06T18:31:43.286Z,17.40
2023-05-06T18:34:11.181Z,17.20
2023-05-06T18:36:40.355Z,17.00
2023-05-06T18:39:08.222Z,17.10
2023-05-06T18:41:36.222Z,17.20
2023-05-06T18:44:04.676Z,17.30
2023-05-06T18:46:32.529Z,17.10
2023-05-06T18:49:00.885Z,17.20
2023-05-06T18:51:28.821Z,17.10
2023-05-06T18:53:57.999Z,17.00
2023-05-06T18:56:25.937Z,17.00
2023-05-06T18:58:53.796Z,16.80
2023-05-06T19:01:21.961Z,16.80
2023-05-06T19:03:49.967Z,16.80
2023-05-06T19:06:17.845Z,16.90
2023-05-06T19:08:45.721Z,16.90
2023-05-06T19:11:16.813Z,16.80
2023-05-06T19:13:44.924Z,16.60
2023-05-06T19:16:12.916Z,16.60
2023-05-06T19:18:40.863Z,16.50
2023-05-06T19:21:10.188Z,16.60
2023-05-06T19:23:38.032Z,16.60
2023-05-06T19:26:06.665Z,16.60
2023-05-06T19:28:36.245Z,16.70
2023-05-06T19:31:07.504Z,16.70
2023-05-06T19:33:35.420Z,16.70
2023-05-06T19:36:03.252Z,16.70
2023-05-06T19:38:31.085Z,16.70
2023-05-06T19:40:58.904Z,16.60
2023-05-06T19:43:26.810Z,16.40
2023-05-06T19:45:56.123Z,16.40
2023-05-06T19:48:24.227Z,16.30
2023-05-06T19:50:53.852Z,16.10
2023-05-06T19:53:22.759Z,15.90
2023-05-06T19:55:50.795Z,15.80
2023-05-06T19:58:19.313Z,16.00
2023-05-06T20:00:47.098Z,16.10
2023-05-06T20:03:16.384Z,16.20
2023-05-06T20:05:44.195Z,15.90
2023-05-06T20:08:12.206Z,15.70
2023-05-06T20:10:40.048Z,15.50
2023-05-06T20:13:08.040Z,15.40
2023-05-06T20:15:36.319Z,15.30
2023-05-06T20:18:04.211Z,15.20
2023-05-06T20:20:35.888Z,15.20
2023-05-06T20:23:03.732Z,15.10
2023-05-06T20:25:31.683Z,14.90
2023-05-06T20:27:59.556Z,14.90
2023-05-06T20:30:27.412Z,14.80
2023-05-06T20:32:55.363Z,14.80
2023-05-06T20:35:23.201Z,14.80
2023-05-06T20:37:54.342Z,14.80
2023-05-06T20:40:22.279Z,14.80
2023-05-06T20:42:50.064Z,14.70
2023-05-06T20:45:17.838Z,14.60
2023-05-06T20:47:45.922Z,14.50
2023-05-06T20:50:17.054Z,14.50
2023-05-06T20:52:45.909Z,14.40
2023-05-06T20:55:15.793Z,14.40
2023-05-06T20:57:43.940Z,14.40
2023-05-06T21:00:12.437Z,14.40
2023-05-06T21:02:41.902Z,14.30
2023-05-06T21:05:10.461Z,14.30
2023-05-06T21:07:38.474Z,14.40
2023-05-06T21:10:06.971Z,14.40
2023-05-06T21:12:36.196Z,14.30
2023-05-06T21:15:04.319Z,14.20
2023-05-06T21:17:32.226Z,14.10
2023-05-06T21:20:00.140Z,14.10
2023-05-06T21:22:27.968Z,14.00
2023-05-06T21:24:56.395Z,14.10
2023-05-06T21:27:24.237Z,14.00
2023-05-06T21:29:53.423Z,14.00
2023-05-06T21:32:21.358Z,13.90
2023-05-06T21:34:49.328Z,13.90
2023-05-06T21:37:17.119Z,13.90
2023-05-06T21:39:44.959Z,13.80
2023-05-06T21:42:12.781Z,13.70
2023-05-06T21:44:40.592Z,13.90
2023-05-06T21:47:09.962Z,13.70
2023-05-06T21:49:37.737Z,13.70
2023-05-06T21:52:06.337Z,13.60
2023-05-06T21:54:34.197Z,13.70
2023-05-06T21:57:02.300Z,13.60
2023-05-06T21:59:30.171Z,13.50
2023-05-06T22:01:58.004Z,13.60
2023-05-06T22:04:27.193Z,13.50
2023-05-06T22:06:55.017Z,13.50
2023-05-06T22:09:23.401Z,13.30
2023-05-06T22:11:51.867Z,13.40
2023-05-06T22:14:21.993Z,13.40
2023-05-06T22:16:52.653Z,13.40
2023-05-06T22:19:21.229Z,13.30
2023-05-06T22:21:50.543Z,13.30
2023-05-06T22:24:18.342Z,13.20
2023-05-06T22:26:46.186Z,13.30
2023-05-06T22:29:13.982Z,13.30
2023-05-06T22:31:41.822Z,13.20
2023-05-06T22:34:09.684Z,13.30
2023-05-06T22:36:37.505Z,13.30
2023-05-06T22:39:06.692Z,13.20
2023-05-06T22:41:34.557Z,13.10
2023-05-06T22:44:02.375Z,13.10
2023-05-06T22:46:30.289Z,13.10
2023-05-06T22:48:58.430Z,13.20
2023-05-06T22:51:26.256Z,13.50
2023-05-06T22:53:54.095Z,13.70
2023-05-06T22:56:23.348Z,13.50
2023-05-06T22:58:51.260Z,13.40
2023-05-06T23:01:19.124Z,13.20
2023-05-06T23:03:47.118Z,13.20
2023-05-06T23:06:15.095Z,13.00
2023-05-06T23:08:42.923Z,13.10
2023-05-06T23:11:10.805Z,13.00
2023-05-06T23:13:39.987Z,12.80
2023-05-06T23:16:10.168Z,12.80
2023-05-06T23:18:38.105Z,12.90
2023-05-06T23:21:06.142Z,12.90
2023-05-06T23:23:34.018Z,13.10
2023-05-06T23:26:01.833Z,13.20
2023-05-06T23:28:29.709Z,12.90
2023-05-06T23:30:58.964Z,12.80
2023-05-06T23:33:26.877Z,12.70
2023-05-06T23:35:54.683Z,12.70
2023-05-06T23:38:22.462Z,12.60
2023-05-06T23:40:50.796Z,12.60
2023-05-06T23:43:18.589Z,12.60
2023-05-06T23:45:46.444Z,12.80
2023-05-06T23:48:15.593Z,12.80
2023-05-06T23:50:43.380Z,12.50
2023-05-06T23:53:11.192Z,12.60
2023-05-06T23:55:39.017Z,12.60
2023-05-06T23:58:06.822Z,12.40
